createdAt,value
2019-01-09T00:02:58.197Z,98583.52
2019-01-09T00:07:02.537Z,98587.41
2019-01-09T00:11:06.809Z,98583.04
2019-01-09T00:15:11.044Z,98577.39
2019-01-09T00:19:15.555Z,98578.25
2019-01-09T00:23:19.732Z,98567.39
2019-01-09T00:27:23.907Z,98565.20
2019-01-09T00:31:28.092Z,98562.59
2019-01-09T00:35:37.276Z,98551.28
2019-01-09T00:39:38.177Z,98546.04
2019-01-09T00:43:42.326Z,98561.26
2019-01-09T00:47:46.529Z,98566.89
2019-01-09T00:51:50.946Z,98562.11
2019-01-09T00:55:55.171Z,98566.00
2019-01-09T00:59:59.334Z,98568.14
2019-01-09T01:04:52.740Z,98574.66
2019-01-09T01:09:30.399Z,98578.10
2019-01-09T01:13:56.444Z,98559.84
2019-01-09T01:18:37.702Z,98566.31
2019-01-09T01:23:14.367Z,98561.53
2019-01-09T01:27:44.022Z,98565.88
2019-01-09T01:32:03.047Z,98584.11
2019-01-09T01:36:45.553Z,98567.17
2019-01-09T01:41:06.100Z,98584.11
2019-01-09T01:45:45.894Z,98579.33
2019-01-09T01:50:13.482Z,98583.22
2019-01-09T01:55:08.843Z,98584.94
2019-01-09T01:59:45.267Z,98581.00
2019-01-09T02:04:20.682Z,98584.89
2019-01-09T02:09:17.106Z,98580.97
2019-01-09T02:13:39.516Z,98577.03
2019-01-09T02:18:05.011Z,98572.25
2019-01-09T02:22:48.969Z,98579.20
2019-01-09T02:27:21.814Z,98577.87
2019-01-09T02:32:12.850Z,98573.96
2019-01-09T02:36:17.304Z,98562.19
2019-01-09T02:40:21.491Z,98561.77
2019-01-09T02:44:32.237Z,98576.52
2019-01-09T02:48:31.800Z,98570.88
2019-01-09T02:52:35.925Z,98572.59
2019-01-09T02:56:40.101Z,98569.54
2019-01-09T03:00:44.330Z,98573.46
2019-01-09T03:04:48.499Z,98575.61
2019-01-09T03:08:52.628Z,98572.58
2019-01-09T03:12:56.773Z,98568.67
2019-01-09T03:17:04.143Z,98562.14
2019-01-09T03:21:08.286Z,98564.28
2019-01-09T03:25:12.460Z,98579.48
2019-01-09T03:29:16.619Z,98570.80
2019-01-09T03:33:20.791Z,98574.72
2019-01-09T03:37:24.963Z,98576.89
2019-01-09T03:41:29.135Z,98577.77
2019-01-09T03:45:33.267Z,98569.91
2019-01-09T03:49:37.443Z,98577.33
2019-01-09T03:53:41.895Z,98584.73
2019-01-09T03:57:46.062Z,98582.13
2019-01-09T04:01:50.293Z,98574.77
2019-01-09T04:05:54.427Z,98573.45
2019-01-09T04:09:58.593Z,98573.46
2019-01-09T04:14:02.787Z,98575.63
2019-01-09T04:18:06.974Z,98565.66
2019-01-09T04:22:11.093Z,98558.69
2019-01-09T04:26:15.605Z,98554.38
2019-01-09T04:30:19.805Z,98549.16
2019-01-09T04:34:23.945Z,98552.61
2019-01-09T04:38:28.116Z,98548.27
2019-01-09T04:42:32.303Z,98538.71
2019-01-09T04:46:36.459Z,98543.44
2019-01-09T04:50:40.639Z,98542.57
2019-01-09T04:54:44.807Z,98539.53
2019-01-09T04:58:48.967Z,98537.76
2019-01-09T05:02:53.983Z,98541.65
2019-01-09T05:07:00.625Z,98542.97
2019-01-09T05:11:04.056Z,98546.44
2019-01-09T05:15:08.527Z,98552.53
2019-01-09T05:19:12.741Z,98561.63
2019-01-09T05:23:16.907Z,98559.02
2019-01-09T05:27:21.086Z,98566.38
2019-01-09T05:31:25.310Z,98559.86
2019-01-09T05:35:29.487Z,98560.28
2019-01-09T05:39:39.660Z,98549.83
2019-01-09T05:43:39.558Z,98558.91
2019-01-09T05:47:43.726Z,98558.45
2019-01-09T05:51:48.181Z,98553.17
2019-01-09T05:55:52.389Z,98557.48
2019-01-09T05:59:56.533Z,98559.23
2019-01-09T06:04:02.174Z,98568.34
2019-01-09T06:08:06.566Z,98564.84
2019-01-09T06:12:10.782Z,98573.06
2019-01-09T06:16:14.927Z,98575.20
2019-01-09T06:20:19.454Z,98577.39
2019-01-09T06:24:23.634Z,98582.15
2019-01-09T06:28:27.756Z,98588.23
2019-01-09T06:32:32.207Z,98592.59
2019-01-09T06:36:36.389Z,98593.01
2019-01-09T06:40:40.520Z,98594.73
2019-01-09T06:44:44.702Z,98597.33
2019-01-09T06:48:48.817Z,98608.20
2019-01-09T06:52:52.997Z,98604.69
2019-01-09T06:56:57.456Z,98609.51
2019-01-09T07:01:01.594Z,98609.51
2019-01-09T07:05:06.053Z,98602.61
2019-01-09T07:09:10.239Z,98609.55
2019-01-09T07:13:14.403Z,98611.33
2019-01-09T07:17:18.587Z,98615.67
2019-01-09T07:21:22.768Z,98614.41
2019-01-09T07:25:26.933Z,98617.06
2019-01-09T07:29:31.099Z,98618.36
2019-01-09T07:33:35.249Z,98613.99
2019-01-09T07:37:45.104Z,98627.44
2019-01-09T07:41:45.314Z,98623.52
2019-01-09T07:45:49.463Z,98620.44
2019-01-09T07:49:53.617Z,98630.41
2019-01-09T07:53:57.917Z,98639.08
2019-01-09T07:58:02.075Z,98646.01
2019-01-09T08:02:06.295Z,98641.26
2019-01-09T08:06:10.464Z,98640.80
2019-01-09T08:10:14.578Z,98649.53
2019-01-09T08:14:18.795Z,98649.97
2019-01-09T08:18:22.982Z,98649.97
2019-01-09T08:22:27.128Z,98650.84
2019-01-09T08:26:31.308Z,98647.80
2019-01-09T08:30:35.452Z,98647.84
2019-01-09T08:34:39.624Z,98641.84
2019-01-09T08:38:44.089Z,98647.97
2019-01-09T08:42:48.467Z,98651.56
2019-01-09T08:46:52.643Z,98645.07
2019-01-09T08:50:56.835Z,98655.58
2019-01-09T08:55:01.371Z,98661.64
2019-01-09T08:59:05.522Z,98670.74
2019-01-09T09:03:09.684Z,98665.52
2019-01-09T09:07:13.905Z,98676.78
2019-01-09T09:11:18.154Z,98683.25
2019-01-09T09:15:22.311Z,98685.86
2019-01-09T09:19:26.504Z,98685.45
2019-01-09T09:23:30.730Z,98686.73
2019-01-09T09:27:34.872Z,98682.41
2019-01-09T09:31:39.050Z,98679.30
2019-01-09T09:35:43.182Z,98670.17
2019-01-09T09:39:47.414Z,98672.30
2019-01-09T09:43:51.605Z,98670.53
2019-01-09T09:47:55.712Z,98680.13
2019-01-09T09:51:59.870Z,98681.85
2019-01-09T09:56:04.420Z,98681.03
2019-01-09T10:00:12.296Z,98687.10
2019-01-09T10:04:16.536Z,98676.24
2019-01-09T10:08:29.125Z,98687.16
2019-01-09T10:12:26.612Z,98680.23
2019-01-09T10:16:31.012Z,98685.02
2019-01-09T10:20:35.225Z,98694.96
2019-01-09T10:24:39.384Z,98696.22
2019-01-09T10:28:43.545Z,98696.54
2019-01-09T10:32:47.724Z,98697.77
2019-01-09T10:36:51.875Z,98693.83
2019-01-09T10:40:56.033Z,98699.86
2019-01-09T10:45:00.211Z,98690.65
2019-01-09T10:49:04.338Z,98706.69
2019-01-09T10:53:08.514Z,98697.11
2019-01-09T10:57:12.630Z,98697.87
2019-01-09T11:01:16.840Z,98698.30
2019-01-09T11:05:21.087Z,98699.16
2019-01-09T11:09:25.536Z,98693.94
2019-01-09T11:13:29.661Z,98695.66
2019-01-09T11:17:34.095Z,98697.32
2019-01-09T11:21:38.249Z,98689.16
2019-01-09T11:25:42.465Z,98683.05
2019-01-09T11:29:46.632Z,98678.19
2019-01-09T11:33:50.812Z,98682.99
2019-01-09T11:37:54.950Z,98675.56
2019-01-09T11:41:59.117Z,98675.16
2019-01-09T11:46:03.435Z,98672.09
2019-01-09T11:50:08.552Z,98671.26
2019-01-09T11:54:12.722Z,98672.58
2019-01-09T11:58:16.842Z,98679.88
2019-01-09T12:02:22.250Z,98676.83
2019-01-09T12:06:26.630Z,98684.64
2019-01-09T12:10:30.856Z,98675.55
2019-01-09T12:14:35.590Z,98690.71
2019-01-09T12:18:39.725Z,98682.47
2019-01-09T12:22:44.894Z,98683.75
2019-01-09T12:26:50.037Z,98690.69
2019-01-09T12:30:54.216Z,98692.02
2019-01-09T12:34:58.372Z,98691.19
2019-01-09T12:39:03.078Z,98694.17
2019-01-09T12:43:07.542Z,98688.09
2019-01-09T12:47:12.007Z,98694.16
2019-01-09T12:51:16.123Z,98692.36
2019-01-09T12:55:20.625Z,98686.27
2019-01-09T12:59:24.789Z,98689.30
2019-01-09T13:03:28.960Z,98695.86
2019-01-09T13:07:33.123Z,98698.02
2019-01-09T13:11:37.351Z,98697.56
2019-01-09T13:15:41.552Z,98702.77
2019-01-09T13:19:45.682Z,98710.94
2019-01-09T13:23:49.846Z,98712.67
2019-01-09T13:27:54.302Z,98716.12
2019-01-09T13:31:58.475Z,98726.53
2019-01-09T13:36:02.691Z,98721.23
2019-01-09T13:40:09.249Z,98725.54
2019-01-09T13:44:13.377Z,98721.59
2019-01-09T13:48:17.538Z,98731.89
2019-01-09T13:52:21.686Z,98730.05
2019-01-09T13:56:25.838Z,98731.77
2019-01-09T14:00:30.002Z,98737.84
2019-01-09T14:04:34.161Z,98739.52
2019-01-09T14:08:41.438Z,98742.52
2019-01-09T14:12:45.576Z,98745.94
2019-01-09T14:16:49.819Z,98751.56
2019-01-09T14:20:54.264Z,98753.22
2019-01-09T14:24:58.426Z,98752.81
2019-01-09T14:29:02.576Z,98755.88
2019-01-09T14:33:06.749Z,98758.80
2019-01-09T14:37:10.942Z,98760.53
2019-01-09T14:41:15.101Z,98767.92
2019-01-09T14:45:19.231Z,98767.92
2019-01-09T14:49:23.429Z,98767.44
2019-01-09T14:53:27.570Z,98766.98
2019-01-09T14:57:31.798Z,98766.58
2019-01-09T15:01:36.003Z,98769.17
2019-01-09T15:05:40.207Z,98780.50
2019-01-09T15:09:44.345Z,98790.44
2019-01-09T15:13:48.578Z,98784.39
2019-01-09T15:17:52.782Z,98782.23
2019-01-09T15:21:56.997Z,98785.70
2019-01-09T15:26:02.482Z,98799.13
2019-01-09T15:30:09.547Z,98798.27
2019-01-09T15:34:13.745Z,98804.30
2019-01-09T15:38:19.927Z,98811.67
2019-01-09T15:42:23.791Z,98805.95
2019-01-09T15:46:27.967Z,98812.79
2019-01-09T15:50:32.164Z,98819.29
2019-01-09T15:54:36.357Z,98823.53
2019-01-09T15:58:40.662Z,98819.63
2019-01-09T16:02:44.852Z,98825.63
2019-01-09T16:06:49.055Z,98831.23
2019-01-09T16:10:53.251Z,98828.14
2019-01-09T16:14:57.446Z,98841.01
2019-01-09T16:19:01.600Z,98837.55
2019-01-09T16:23:09.755Z,98850.07
2019-01-09T16:27:13.925Z,98845.67
2019-01-09T16:31:35.827Z,98849.94
2019-01-09T16:35:40.021Z,98846.05
2019-01-09T16:39:44.253Z,98849.91
2019-01-09T16:43:48.510Z,98857.23
2019-01-09T16:47:52.665Z,98859.83
2019-01-09T16:51:57.010Z,98858.50
2019-01-09T16:56:01.170Z,98858.97
2019-01-09T17:00:09.331Z,98869.72
2019-01-09T17:04:14.554Z,98867.56
2019-01-09T17:08:18.902Z,98867.56
2019-01-09T17:12:23.095Z,98870.23
2019-01-09T17:16:27.279Z,98865.89
2019-01-09T17:20:31.486Z,98867.16
2019-01-09T17:24:35.683Z,98870.19
2019-01-09T17:28:40.008Z,98873.30
2019-01-09T17:32:44.238Z,98874.19
2019-01-09T17:36:48.396Z,98879.06
2019-01-09T17:40:52.585Z,98879.95
2019-01-09T17:44:56.796Z,98886.92
2019-01-09T17:49:01.059Z,98891.25
2019-01-09T17:53:06.390Z,98890.81
2019-01-09T17:57:10.654Z,98899.05
2019-01-09T18:01:15.529Z,98902.45
2019-01-09T18:05:19.884Z,98899.81
2019-01-09T18:09:27.387Z,98899.70
2019-01-09T18:13:31.643Z,98901.44
2019-01-09T18:17:35.954Z,98900.58
2019-01-09T18:21:40.560Z,98907.54
2019-01-09T18:25:45.178Z,98908.44
2019-01-09T18:29:58.238Z,98921.83
2019-01-09T18:34:20.552Z,98925.77
2019-01-09T18:38:46.505Z,98929.66
2019-01-09T18:43:36.408Z,98934.86
2019-01-09T18:48:15.025Z,98942.22
2019-01-09T18:52:38.297Z,98948.17
2019-01-09T18:56:42.532Z,98948.72
2019-01-09T19:00:47.091Z,98944.86
2019-01-09T19:04:52.357Z,98949.69
2019-01-09T19:08:56.539Z,98951.82
2019-01-09T19:13:00.916Z,98967.05
2019-01-09T19:17:05.342Z,98965.72
2019-01-09T19:21:09.556Z,98965.35
2019-01-09T19:25:15.761Z,98966.69
2019-01-09T19:29:19.943Z,98971.09
2019-01-09T19:33:24.149Z,98970.95
2019-01-09T19:37:28.302Z,98975.20
2019-01-09T19:41:32.479Z,98972.25
2019-01-09T19:45:36.890Z,98982.17
2019-01-09T19:49:41.133Z,98980.41
2019-01-09T19:53:45.338Z,98994.23
2019-01-09T19:57:49.472Z,98997.22
2019-01-09T20:01:53.729Z,98993.69
2019-01-09T20:05:57.890Z,98999.23
2019-01-09T20:10:04.898Z,99004.83
2019-01-09T20:14:09.071Z,99004.00
2019-01-09T20:18:13.218Z,99007.94
2019-01-09T20:22:17.399Z,99005.77
2019-01-09T20:26:21.544Z,99011.41
2019-01-09T20:30:27.837Z,99018.26
2019-01-09T20:34:31.969Z,99014.75
2019-01-09T20:38:37.149Z,99017.23
2019-01-09T20:42:41.269Z,99030.06
2019-01-09T20:46:45.456Z,99028.25
2019-01-09T20:50:50.743Z,99033.45
2019-01-09T20:54:55.337Z,99037.70
2019-01-09T20:58:59.532Z,99041.13
2019-01-09T21:03:08.213Z,99049.78
2019-01-09T21:07:12.399Z,99047.62
2019-01-09T21:11:16.621Z,99062.69
2019-01-09T21:15:21.030Z,99068.27
2019-01-09T21:19:25.190Z,99066.06
2019-01-09T21:23:29.299Z,99079.52
2019-01-09T21:27:41.825Z,99084.84
2019-01-09T21:31:39.392Z,99081.38
2019-01-09T21:35:43.623Z,99088.30
2019-01-09T21:39:47.830Z,99093.50
2019-01-09T21:43:57.098Z,99103.38
2019-01-09T21:48:01.289Z,99099.09
2019-01-09T21:52:05.447Z,99100.26
2019-01-09T21:56:09.751Z,99090.70
2019-01-09T22:00:17.441Z,99093.69
2019-01-09T22:04:21.755Z,99106.58
2019-01-09T22:08:26.086Z,99105.58
2019-01-09T22:12:30.411Z,99110.69
2019-01-09T22:16:34.740Z,99124.97
2019-01-09T22:20:39.428Z,99129.81
2019-01-09T22:24:43.773Z,99127.17
2019-01-09T22:28:48.130Z,99128.00
2019-01-09T22:32:52.595Z,99132.28
2019-01-09T22:36:56.975Z,99131.80
2019-01-09T22:41:01.637Z,99133.19
2019-01-09T22:45:07.419Z,99138.77
2019-01-09T22:49:11.774Z,99137.03
2019-01-09T22:53:16.098Z,99141.84
2019-01-09T22:57:20.385Z,99144.88
2019-01-09T23:01:27.015Z,99146.70
2019-01-09T23:05:31.645Z,99147.13
2019-01-09T23:09:39.868Z,99153.31
2019-01-09T23:13:44.145Z,99154.97
2019-01-09T23:17:49.100Z,99157.08
2019-01-09T23:21:53.467Z,99164.35
2019-01-09T23:25:57.823Z,99160.84
2019-01-09T23:30:02.102Z,99172.44
2019-01-09T23:34:06.876Z,99173.68
2019-01-09T23:38:11.698Z,99177.10
2019-01-09T23:42:16.110Z,99180.13
2019-01-09T23:46:20.993Z,99190.08
2019-01-09T23:50:25.486Z,99183.55
2019-01-09T23:54:29.790Z,99186.66
2019-01-09T23:58:34.743Z,99189.31
